sensor_id;sensor_type;location;lat;lon;timestamp;pressure;altitude;pressure_sealevel;temperature;humidity
11952;BME280;6036;41.840;23.486;2022-07-18T00:02:07;91112.88;;;21.91;40.66
11952;BME280;6036;41.840;23.486;2022-07-18T00:04:32;91108.38;;;21.60;41.15
11952;BME280;6036;41.840;23.486;2022-07-18T00:06:58;91102.22;;;21.70;41.19
11952;BME280;6036;41.840;23.486;2022-07-18T00:09:23;91099.63;;;21.53;41.40
11952;BME280;6036;41.840;23.486;2022-07-18T00:11:50;91099.19;;;21.82;40.57
11952;BME280;6036;41.840;23.486;2022-07-18T00:14:17;91095.31;;;21.97;40.13
11952;BME280;6036;41.840;23.486;2022-07-18T00:16:42;91104.09;;;22.01;39.92
11952;BME280;6036;41.840;23.486;2022-07-18T00:19:08;91105.88;;;22.26;39.36
11952;BME280;6036;41.840;23.486;2022-07-18T00:21:34;91104.34;;;22.32;39.33
11952;BME280;6036;41.840;23.486;2022-07-18T00:23:59;91104.13;;;21.94;39.90
11952;BME280;6036;41.840;23.486;2022-07-18T00:26:25;91105.22;;;22.04;40.08
11952;BME280;6036;41.840;23.486;2022-07-18T00:28:50;91104.50;;;21.79;40.17
11952;BME280;6036;41.840;23.486;2022-07-18T00:31:16;91100.69;;;21.76;40.57
11952;BME280;6036;41.840;23.486;2022-07-18T00:33:41;91104.19;;;21.38;41.31
11952;BME280;6036;41.840;23.486;2022-07-18T00:36:07;91098.09;;;21.48;41.18
11952;BME280;6036;41.840;23.486;2022-07-18T00:38:32;91101.13;;;21.57;40.79
11952;BME280;6036;41.840;23.486;2022-07-18T00:40:57;91108.31;;;21.81;40.51
11952;BME280;6036;41.840;23.486;2022-07-18T00:43:23;91110.56;;;21.93;40.06
11952;BME280;6036;41.840;23.486;2022-07-18T00:45:49;91108.25;;;22.10;39.55
11952;BME280;6036;41.840;23.486;2022-07-18T00:48:16;91108.94;;;22.21;39.65
11952;BME280;6036;41.840;23.486;2022-07-18T00:50:42;91112.75;;;22.20;39.39
11952;BME280;6036;41.840;23.486;2022-07-18T00:53:08;91118.13;;;22.13;39.60
11952;BME280;6036;41.840;23.486;2022-07-18T00:55:37;91115.16;;;21.75;39.73
11952;BME280;6036;41.840;23.486;2022-07-18T00:58:03;91118.94;;;21.95;39.47
11952;BME280;6036;41.840;23.486;2022-07-18T01:00:29;91115.47;;;22.09;39.02
11952;BME280;6036;41.840;23.486;2022-07-18T01:03:13;91107.88;;;22.00;39.57
11952;BME280;6036;41.840;23.486;2022-07-18T01:05:38;91114.38;;;21.99;39.59
11952;BME280;6036;41.840;23.486;2022-07-18T01:08:04;91113.19;;;22.08;39.17
11952;BME280;6036;41.840;23.486;2022-07-18T01:10:29;91110.56;;;21.93;40.19
11952;BME280;6036;41.840;23.486;2022-07-18T01:12:55;91106.78;;;21.73;40.10
11952;BME280;6036;41.840;23.486;2022-07-18T01:15:20;91104.16;;;21.59;40.66
11952;BME280;6036;41.840;23.486;2022-07-18T01:17:46;91103.75;;;21.71;40.13
11952;BME280;6036;41.840;23.486;2022-07-18T01:20:12;91102.63;;;21.58;40.78
11952;BME280;6036;41.840;23.486;2022-07-18T01:22:37;91112.94;;;21.49;41.41
11952;BME280;6036;41.840;23.486;2022-07-18T01:25:05;91101.53;;;21.24;42.01
11952;BME280;6036;41.840;23.486;2022-07-18T01:27:31;91107.66;;;21.28;41.20
11952;BME280;6036;41.840;23.486;2022-07-18T01:29:56;91109.91;;;21.12;40.69
11952;BME280;6036;41.840;23.486;2022-07-18T01:32:22;91115.56;;;20.96;40.20
11952;BME280;6036;41.840;23.486;2022-07-18T01:34:48;91109.16;;;21.08;39.95
11952;BME280;6036;41.840;23.486;2022-07-18T01:37:14;91109.16;;;21.11;39.29
11952;BME280;6036;41.840;23.486;2022-07-18T01:39:41;91109.16;;;21.11;38.80
11952;BME280;6036;41.840;23.486;2022-07-18T01:42:08;91111.44;;;21.30;38.70
11952;BME280;6036;41.840;23.486;2022-07-18T01:44:34;91106.88;;;21.10;39.05
11952;BME280;6036;41.840;23.486;2022-07-18T01:47:01;91109.13;;;20.97;39.14
11952;BME280;6036;41.840;23.486;2022-07-18T01:49:27;91105.69;;;20.97;38.95
11952;BME280;6036;41.840;23.486;2022-07-18T01:51:55;91108.38;;;20.83;38.99
11952;BME280;6036;41.840;23.486;2022-07-18T01:54:22;91113.31;;;20.88;38.74
11952;BME280;6036;41.840;23.486;2022-07-18T01:56:48;91112.19;;;21.06;38.61
11952;BME280;6036;41.840;23.486;2022-07-18T01:59:14;91106.13;;;21.09;38.68
11952;BME280;6036;41.840;23.486;2022-07-18T02:01:39;91101.91;;;21.05;39.00
11952;BME280;6036;41.840;23.486;2022-07-18T02:04:05;91102.28;;;20.89;39.68
11952;BME280;6036;41.840;23.486;2022-07-18T02:06:30;91112.16;;;20.85;40.13
11952;BME280;6036;41.840;23.486;2022-07-18T02:08:56;91115.22;;;20.84;40.47
11952;BME280;6036;41.840;23.486;2022-07-18T02:11:21;91110.59;;;20.66;40.64
11952;BME280;6036;41.840;23.486;2022-07-18T02:13:46;91123.56;;;20.79;40.26
11952;BME280;6036;41.840;23.486;2022-07-18T02:16:12;91118.25;;;20.86;40.03
11952;BME280;6036;41.840;23.486;2022-07-18T02:18:37;91118.25;;;20.79;40.45
11952;BME280;6036;41.840;23.486;2022-07-18T02:21:03;91113.94;;;20.28;41.67
11952;BME280;6036;41.840;23.486;2022-07-18T02:23:28;91125.59;;;20.02;41.86
11952;BME280;6036;41.840;23.486;2022-07-18T02:25:54;91123.06;;;20.31;41.58
11952;BME280;6036;41.840;23.486;2022-07-18T02:28:21;91135.13;;;20.18;40.90
11952;BME280;6036;41.840;23.486;2022-07-18T02:30:46;91132.50;;;20.21;40.94
11952;BME280;6036;41.840;23.486;2022-07-18T02:33:14;91130.94;;;20.06;41.00
11952;BME280;6036;41.840;23.486;2022-07-18T02:35:40;91134.69;;;19.98;40.51
11952;BME280;6036;41.840;23.486;2022-07-18T02:38:05;91131.66;;;19.99;40.40
11952;BME280;6036;41.840;23.486;2022-07-18T02:40:31;91131.53;;;19.75;40.92
11952;BME280;6036;41.840;23.486;2022-07-18T02:42:57;91123.50;;;19.64;41.38
11952;BME280;6036;41.840;23.486;2022-07-18T02:45:22;91128.81;;;19.64;41.22
11952;BME280;6036;41.840;23.486;2022-07-18T02:47:48;91129.31;;;19.84;40.00
11952;BME280;6036;41.840;23.486;2022-07-18T02:50:13;91133.94;;;20.01;39.28
11952;BME280;6036;41.840;23.486;2022-07-18T02:52:40;91132.81;;;20.02;39.27
11952;BME280;6036;41.840;23.486;2022-07-18T02:55:06;91131.69;;;20.10;39.03
11952;BME280;6036;41.840;23.486;2022-07-18T02:57:32;91138.13;;;20.05;38.90
11952;BME280;6036;41.840;23.486;2022-07-18T02:59:57;91147.22;;;20.01;38.74
11952;BME280;6036;41.840;23.486;2022-07-18T03:02:23;91140.41;;;20.03;39.11
11952;BME280;6036;41.840;23.486;2022-07-18T03:04:48;91141.09;;;19.86;39.46
11952;BME280;6036;41.840;23.486;2022-07-18T03:07:14;91149.13;;;20.07;39.05
11952;BME280;6036;41.840;23.486;2022-07-18T03:09:39;91151.91;;;20.25;38.92
11952;BME280;6036;41.840;23.486;2022-07-18T03:12:05;91136.97;;;20.03;38.84
11952;BME280;6036;41.840;23.486;2022-07-18T03:14:30;91145.31;;;19.94;38.74
11952;BME280;6036;41.840;23.486;2022-07-18T03:16:55;91147.53;;;19.89;39.29
11952;BME280;6036;41.840;23.486;2022-07-18T03:19:21;91149.81;;;19.90;39.16
11952;BME280;6036;41.840;23.486;2022-07-18T03:21:47;91141.84;;;19.87;39.31
11952;BME280;6036;41.840;23.486;2022-07-18T03:24:12;91149.72;;;19.73;39.67
11952;BME280;6036;41.840;23.486;2022-07-18T03:26:40;91152.38;;;19.69;39.71
11952;BME280;6036;41.840;23.486;2022-07-18T03:29:06;91143.56;;;19.58;39.60
11952;BME280;6036;41.840;23.486;2022-07-18T03:31:31;91147.50;;;19.82;39.53
11952;BME280;6036;41.840;23.486;2022-07-18T03:33:56;91146.47;;;20.04;38.47
11952;BME280;6036;41.840;23.486;2022-07-18T03:36:22;91141.91;;;20.01;38.62
11952;BME280;6036;41.840;23.486;2022-07-18T03:38:48;91146.84;;;19.99;38.53
11952;BME280;6036;41.840;23.486;2022-07-18T03:41:13;91150.13;;;19.78;39.26
11952;BME280;6036;41.840;23.486;2022-07-18T03:43:39;91154.31;;;19.79;39.87
11952;BME280;6036;41.840;23.486;2022-07-18T03:46:06;91152.38;;;19.73;39.54
11952;BME280;6036;41.840;23.486;2022-07-18T03:48:32;91156.66;;;19.95;38.82
11952;BME280;6036;41.840;23.486;2022-07-18T03:50:58;91152.94;;;20.10;38.45
11952;BME280;6036;41.840;23.486;2022-07-18T03:53:24;91159.31;;;19.95;38.73
11952;BME280;6036;41.840;23.486;2022-07-18T03:55:50;91172.25;;;20.00;38.33
11952;BME280;6036;41.840;23.486;2022-07-18T03:58:15;91166.66;;;20.12;37.92
11952;BME280;6036;41.840;23.486;2022-07-18T04:00:41;91165.84;;;20.08;38.19
11952;BME280;6036;41.840;23.486;2022-07-18T04:03:06;91160.88;;;20.03;37.75
11952;BME280;6036;41.840;23.486;2022-07-18T04:05:32;91163.84;;;19.84;37.97
11952;BME280;6036;41.840;23.486;2022-07-18T04:07:57;91166.97;;;20.03;37.70
11952;BME280;6036;41.840;23.486;2022-07-18T04:10:23;91164.69;;;20.02;37.72
11952;BME280;6036;41.840;23.486;2022-07-18T04:12:50;91173.00;;;19.93;37.63
11952;BME280;6036;41.840;23.486;2022-07-18T04:15:17;91176.84;;;20.03;37.13
11952;BME280;6036;41.840;23.486;2022-07-18T04:17:43;91178.81;;;20.20;36.75
11952;BME280;6036;41.840;23.486;2022-07-18T04:20:09;91167.88;;;20.32;36.95
11952;BME280;6036;41.840;23.486;2022-07-18T04:22:52;91162.91;;;20.27;37.04
11952;BME280;6036;41.840;23.486;2022-07-18T04:25:19;91167.50;;;20.37;36.60
11952;BME280;6036;41.840;23.486;2022-07-18T04:27:46;91165.66;;;20.41;36.66
11952;BME280;6036;41.840;23.486;2022-07-18T04:30:12;91160.00;;;20.60;36.28
11952;BME280;6036;41.840;23.486;2022-07-18T04:32:39;91158.81;;;20.47;36.35
11952;BME280;6036;41.840;23.486;2022-07-18T04:35:06;91161.09;;;20.52;36.05
11952;BME280;6036;41.840;23.486;2022-07-18T04:37:32;91159.63;;;20.69;35.68
11952;BME280;6036;41.840;23.486;2022-07-18T04:39:58;91151.63;;;20.58;35.68
11952;BME280;6036;41.840;23.486;2022-07-18T04:42:24;91157.75;;;20.66;35.43
11952;BME280;6036;41.840;23.486;2022-07-18T04:44:50;91163.84;;;20.81;35.67
11952;BME280;6036;41.840;23.486;2022-07-18T04:47:15;91167.28;;;20.92;35.91
11952;BME280;6036;41.840;23.486;2022-07-18T04:49:41;91174.13;;;20.93;36.20
11952;BME280;6036;41.840;23.486;2022-07-18T04:52:06;91177.97;;;21.16;36.12
11952;BME280;6036;41.840;23.486;2022-07-18T04:54:31;91186.72;;;21.31;35.97
11952;BME280;6036;41.840;23.486;2022-07-18T04:56:57;91178.00;;;21.34;36.37
11952;BME280;6036;41.840;23.486;2022-07-18T04:59:22;91183.72;;;21.50;36.77
11952;BME280;6036;41.840;23.486;2022-07-18T05:01:48;91188.66;;;21.45;36.63
11952;BME280;6036;41.840;23.486;2022-07-18T05:04:13;91193.97;;;21.48;36.70
11952;BME280;6036;41.840;23.486;2022-07-18T05:06:39;91190.16;;;21.91;35.57
11952;BME280;6036;41.840;23.486;2022-07-18T05:09:04;91201.19;;;21.97;35.73
11952;BME280;6036;41.840;23.486;2022-07-18T05:11:29;91195.88;;;21.86;35.77
11952;BME280;6036;41.840;23.486;2022-07-18T05:13:55;91192.03;;;22.09;35.66
11952;BME280;6036;41.840;23.486;2022-07-18T05:16:20;91189.69;;;22.25;35.14
11952;BME280;6036;41.840;23.486;2022-07-18T05:18:46;91191.53;;;22.42;34.96
11952;BME280;6036;41.840;23.486;2022-07-18T05:21:11;91195.25;;;22.69;34.98
11952;BME280;6036;41.840;23.486;2022-07-18T05:23:36;91177.81;;;23.23;33.62
11952;BME280;6036;41.840;23.486;2022-07-18T05:26:02;91180.69;;;23.50;33.98
11952;BME280;6036;41.840;23.486;2022-07-18T05:28:27;91185.69;;;23.88;33.28
11952;BME280;6036;41.840;23.486;2022-07-18T05:30:53;91183.16;;;24.15;32.95
11952;BME280;6036;41.840;23.486;2022-07-18T05:33:19;91187.81;;;24.45;32.86
11952;BME280;6036;41.840;23.486;2022-07-18T05:35:45;91181.94;;;24.23;33.22
11952;BME280;6036;41.840;23.486;2022-07-18T05:38:10;91183.09;;;24.56;32.70
11952;BME280;6036;41.840;23.486;2022-07-18T05:40:36;91192.22;;;24.96;32.54
11952;BME280;6036;41.840;23.486;2022-07-18T05:43:01;91178.19;;;25.38;31.83
11952;BME280;6036;41.840;23.486;2022-07-18T05:45:28;91184.56;;;24.94;32.28
11952;BME280;6036;41.840;23.486;2022-07-18T05:47:54;91181.13;;;24.94;32.44
11952;BME280;6036;41.840;23.486;2022-07-18T05:50:20;91180.59;;;25.59;31.89
11952;BME280;6036;41.840;23.486;2022-07-18T05:52:46;91190.16;;;25.83;31.41
11952;BME280;6036;41.840;23.486;2022-07-18T05:55:12;91183.97;;;26.53;30.63
11952;BME280;6036;41.840;23.486;2022-07-18T05:57:37;91192.59;;;26.21;30.73
11952;BME280;6036;41.840;23.486;2022-07-18T06:00:08;91184.25;;;26.58;30.34
11952;BME280;6036;41.840;23.486;2022-07-18T06:02:35;91198.75;;;27.20;29.26
11952;BME280;6036;41.840;23.486;2022-07-18T06:05:00;91197.47;;;26.49;29.90
11952;BME280;6036;41.840;23.486;2022-07-18T06:07:26;91189.91;;;26.44;31.13
11952;BME280;6036;41.840;23.486;2022-07-18T06:09:51;91194.72;;;26.92;30.32
11952;BME280;6036;41.840;23.486;2022-07-18T06:12:17;91194.28;;;27.49;29.55
11952;BME280;6036;41.840;23.486;2022-07-18T06:14:42;91199.00;;;27.93;28.25
11952;BME280;6036;41.840;23.486;2022-07-18T06:17:08;91193.88;;;27.83;28.76
11952;BME280;6036;41.840;23.486;2022-07-18T06:19:33;91196.81;;;27.56;29.03
11952;BME280;6036;41.840;23.486;2022-07-18T06:21:59;91194.56;;;27.54;28.51
11952;BME280;6036;41.840;23.486;2022-07-18T06:24:25;91195.47;;;27.80;28.31
11952;BME280;6036;41.840;23.486;2022-07-18T06:26:50;91190.47;;;28.43;27.56
11952;BME280;6036;41.840;23.486;2022-07-18T06:29:16;91188.75;;;27.56;28.33
11952;BME280;6036;41.840;23.486;2022-07-18T06:31:42;91176.06;;;27.89;28.38
11952;BME280;6036;41.840;23.486;2022-07-18T06:34:08;91175.94;;;28.69;28.38
11952;BME280;6036;41.840;23.486;2022-07-18T06:36:33;91183.75;;;29.72;26.27
11952;BME280;6036;41.840;23.486;2022-07-18T06:38:59;91184.34;;;30.13;26.67
11952;BME280;6036;41.840;23.486;2022-07-18T06:41:24;91176.97;;;29.80;26.08
11952;BME280;6036;41.840;23.486;2022-07-18T06:43:50;91180.31;;;30.43;26.67
11952;BME280;6036;41.840;23.486;2022-07-18T06:46:16;91177.97;;;31.10;25.18
11952;BME280;6036;41.840;23.486;2022-07-18T06:48:41;91182.31;;;31.08;25.12
11952;BME280;6036;41.840;23.486;2022-07-18T06:51:07;91173.88;;;31.36;24.96
11952;BME280;6036;41.840;23.486;2022-07-18T06:53:33;91179.03;;;31.74;24.32
11952;BME280;6036;41.840;23.486;2022-07-18T06:56:00;91173.06;;;31.97;24.01
11952;BME280;6036;41.840;23.486;2022-07-18T06:58:28;91168.31;;;32.20;22.95
11952;BME280;6036;41.840;23.486;2022-07-18T07:00:56;91165.31;;;32.17;23.02
11952;BME280;6036;41.840;23.486;2022-07-18T07:03:22;91162.34;;;32.34;22.71
11952;BME280;6036;41.840;23.486;2022-07-18T07:05:47;91171.38;;;32.40;23.49
11952;BME280;6036;41.840;23.486;2022-07-18T07:08:13;91166.53;;;32.35;23.49
11952;BME280;6036;41.840;23.486;2022-07-18T07:10:38;91168.69;;;32.67;23.09
11952;BME280;6036;41.840;23.486;2022-07-18T07:13:04;91170.34;;;32.83;23.57
11952;BME280;6036;41.840;23.486;2022-07-18T07:15:29;91166.28;;;32.69;22.68
11952;BME280;6036;41.840;23.486;2022-07-18T07:17:55;91170.69;;;32.66;23.10
11952;BME280;6036;41.840;23.486;2022-07-18T07:20:21;91160.22;;;32.47;22.57
11952;BME280;6036;41.840;23.486;2022-07-18T07:22:49;91158.53;;;31.64;23.77
11952;BME280;6036;41.840;23.486;2022-07-18T07:25:16;91159.59;;;31.05;24.83
11952;BME280;6036;41.840;23.486;2022-07-18T07:27:42;91149.41;;;30.32;24.47
11952;BME280;6036;41.840;23.486;2022-07-18T07:30:08;91150.72;;;29.80;25.20
11952;BME280;6036;41.840;23.486;2022-07-18T07:32:38;91141.50;;;30.71;24.54
11952;BME280;6036;41.840;23.486;2022-07-18T07:35:05;91139.41;;;30.54;25.02
11952;BME280;6036;41.840;23.486;2022-07-18T07:37:42;91143.69;;;30.85;23.71
11952;BME280;6036;41.840;23.486;2022-07-18T07:40:08;91131.72;;;31.48;24.45
11952;BME280;6036;41.840;23.486;2022-07-18T07:42:34;91126.22;;;32.09;23.85
11952;BME280;6036;41.840;23.486;2022-07-18T07:45:00;91113.25;;;32.95;21.49
11952;BME280;6036;41.840;23.486;2022-07-18T07:47:25;91113.94;;;33.23;21.17
11952;BME280;6036;41.840;23.486;2022-07-18T07:49:51;91110.66;;;33.52;20.86
11952;BME280;6036;41.840;23.486;2022-07-18T07:52:17;91114.88;;;33.62;19.34
11952;BME280;6036;41.840;23.486;2022-07-18T07:54:44;91111.94;;;34.07;20.67
11952;BME280;6036;41.840;23.486;2022-07-18T07:57:10;91114.53;;;34.25;18.34
11952;BME280;6036;41.840;23.486;2022-07-18T07:59:36;91114.78;;;33.80;18.26
11952;BME280;6036;41.840;23.486;2022-07-18T08:02:02;91116.94;;;33.99;19.44
11952;BME280;6036;41.840;23.486;2022-07-18T08:04:27;91107.50;;;33.02;20.09
11952;BME280;6036;41.840;23.486;2022-07-18T08:06:53;91109.78;;;33.55;20.49
11952;BME280;6036;41.840;23.486;2022-07-18T08:09:18;91109.91;;;33.09;18.07
11952;BME280;6036;41.840;23.486;2022-07-18T08:11:43;91103.63;;;33.78;19.84
11952;BME280;6036;41.840;23.486;2022-07-18T08:14:09;91112.59;;;33.93;20.14
11952;BME280;6036;41.840;23.486;2022-07-18T08:16:34;91112.16;;;33.94;20.31
11952;BME280;6036;41.840;23.486;2022-07-18T08:19:00;91102.41;;;33.55;20.05
11952;BME280;6036;41.840;23.486;2022-07-18T08:21:25;91098.91;;;33.87;19.89
11952;BME280;6036;41.840;23.486;2022-07-18T08:23:51;91105.38;;;34.37;18.93
11952;BME280;6036;41.840;23.486;2022-07-18T08:26:16;91112.66;;;34.55;19.30
11952;BME280;6036;41.840;23.486;2022-07-18T08:28:42;91101.50;;;35.20;18.25
11952;BME280;6036;41.840;23.486;2022-07-18T08:31:07;91099.69;;;35.32;17.20
11952;BME280;6036;41.840;23.486;2022-07-18T08:33:32;91105.25;;;35.08;18.59
11952;BME280;6036;41.840;23.486;2022-07-18T08:35:58;91104.63;;;34.60;18.26
11952;BME280;6036;41.840;23.486;2022-07-18T08:38:23;91096.19;;;34.73;18.40
11952;BME280;6036;41.840;23.486;2022-07-18T08:40:52;91099.09;;;34.31;18.41
11952;BME280;6036;41.840;23.486;2022-07-18T08:43:17;91090.28;;;34.36;19.23
11952;BME280;6036;41.840;23.486;2022-07-18T08:45:44;91095.72;;;34.75;18.32
11952;BME280;6036;41.840;23.486;2022-07-18T08:48:12;91096.69;;;33.77;20.17
11952;BME280;6036;41.840;23.486;2022-07-18T08:50:38;91100.59;;;34.71;19.88
11952;BME280;6036;41.840;23.486;2022-07-18T08:53:04;91094.06;;;34.39;22.04
11952;BME280;6036;41.840;23.486;2022-07-18T08:55:29;91095.13;;;34.32;20.57
11952;BME280;6036;41.840;23.486;2022-07-18T08:57:54;91093.81;;;34.28;21.78
11952;BME280;6036;41.840;23.486;2022-07-18T09:00:20;91098.56;;;33.94;19.12
11952;BME280;6036;41.840;23.486;2022-07-18T09:02:59;91086.91;;;33.70;24.16
11952;BME280;6036;41.840;23.486;2022-07-18T09:05:25;91086.47;;;33.95;23.73
11952;BME280;6036;41.840;23.486;2022-07-18T09:07:50;91082.66;;;33.04;20.43
11952;BME280;6036;41.840;23.486;2022-07-18T09:10:16;91096.44;;;32.64;19.98
11952;BME280;6036;41.840;23.486;2022-07-18T09:12:56;91090.19;;;32.91;20.96
11952;BME280;6036;41.840;23.486;2022-07-18T09:15:22;91088.38;;;32.97;17.81
11952;BME280;6036;41.840;23.486;2022-07-18T09:17:49;91088.44;;;31.17;19.14
11952;BME280;6036;41.840;23.486;2022-07-18T09:20:15;91095.50;;;32.22;19.64
11952;BME280;6036;41.840;23.486;2022-07-18T09:22:43;91090.94;;;31.82;17.69
11952;BME280;6036;41.840;23.486;2022-07-18T09:25:09;91088.34;;;31.70;18.71
11952;BME280;6036;41.840;23.486;2022-07-18T09:27:50;91079.25;;;32.76;18.51
11952;BME280;6036;41.840;23.486;2022-07-18T09:32:53;91091.81;;;33.90;17.07
11952;BME280;6036;41.840;23.486;2022-07-18T09:35:22;91092.44;;;33.85;15.65
11952;BME280;6036;41.840;23.486;2022-07-18T09:37:54;91093.41;;;32.62;16.61
11952;BME280;6036;41.840;23.486;2022-07-18T09:40:22;91085.47;;;33.18;15.88
11952;BME280;6036;41.840;23.486;2022-07-18T09:42:49;91087.25;;;32.52;15.11
11952;BME280;6036;41.840;23.486;2022-07-18T09:45:15;91086.88;;;33.47;15.79
11952;BME280;6036;41.840;23.486;2022-07-18T09:47:55;91089.06;;;34.37;15.25
11952;BME280;6036;41.840;23.486;2022-07-18T09:53:07;91080.41;;;33.77;16.41
11952;BME280;6036;41.840;23.486;2022-07-18T09:55:33;91073.25;;;33.88;15.56
11952;BME280;6036;41.840;23.486;2022-07-18T09:58:05;91077.09;;;33.73;18.70
11952;BME280;6036;41.840;23.486;2022-07-18T10:00:35;91078.19;;;34.61;17.32
11952;BME280;6036;41.840;23.486;2022-07-18T10:03:03;91076.50;;;34.93;16.04
11952;BME280;6036;41.840;23.486;2022-07-18T10:05:32;91076.44;;;34.34;16.95
11952;BME280;6036;41.840;23.486;2022-07-18T10:08:00;91077.72;;;34.77;17.62
11952;BME280;6036;41.840;23.486;2022-07-18T10:10:28;91078.56;;;34.69;17.44
11952;BME280;6036;41.840;23.486;2022-07-18T10:12:56;91078.94;;;34.76;16.10
11952;BME280;6036;41.840;23.486;2022-07-18T10:15:25;91077.44;;;34.90;17.04
11952;BME280;6036;41.840;23.486;2022-07-18T10:17:52;91078.59;;;34.45;17.80
11952;BME280;6036;41.840;23.486;2022-07-18T10:20:25;91070.78;;;34.61;17.09
11952;BME280;6036;41.840;23.486;2022-07-18T10:22:52;91075.97;;;34.50;17.10
11952;BME280;6036;41.840;23.486;2022-07-18T10:25:21;91088.31;;;34.60;16.44
11952;BME280;6036;41.840;23.486;2022-07-18T10:30:16;91070.41;;;34.98;15.91
11952;BME280;6036;41.840;23.486;2022-07-18T10:32:42;91072.91;;;34.19;17.96
11952;BME280;6036;41.840;23.486;2022-07-18T10:35:09;91066.84;;;34.24;12.55
11952;BME280;6036;41.840;23.486;2022-07-18T10:37:37;91060.06;;;33.96;12.05
11952;BME280;6036;41.840;23.486;2022-07-18T10:40:28;91065.84;;;33.89;14.98
11952;BME280;6036;41.840;23.486;2022-07-18T10:45:57;91064.22;;;34.44;16.81
11952;BME280;6036;41.840;23.486;2022-07-18T10:51:11;91066.22;;;34.06;12.81
11952;BME280;6036;41.840;23.486;2022-07-18T10:58:54;91053.66;;;33.52;17.35
11952;BME280;6036;41.840;23.486;2022-07-18T11:01:21;91055.31;;;33.16;17.95
11952;BME280;6036;41.840;23.486;2022-07-18T11:03:48;91050.84;;;33.04;18.01
11952;BME280;6036;41.840;23.486;2022-07-18T11:06:14;91044.63;;;32.53;16.83
11952;BME280;6036;41.840;23.486;2022-07-18T11:08:40;91054.84;;;32.67;18.82
11952;BME280;6036;41.840;23.486;2022-07-18T11:11:07;91056.66;;;32.43;18.20
11952;BME280;6036;41.840;23.486;2022-07-18T11:13:37;91052.31;;;32.00;18.94
11952;BME280;6036;41.840;23.486;2022-07-18T11:16:11;91048.66;;;31.76;17.14
11952;BME280;6036;41.840;23.486;2022-07-18T11:23:56;91041.69;;;31.47;17.96
11952;BME280;6036;41.840;23.486;2022-07-18T11:26:24;91042.47;;;31.66;18.67
11952;BME280;6036;41.840;23.486;2022-07-18T11:29:17;91045.19;;;31.17;19.11
11952;BME280;6036;41.840;23.486;2022-07-18T11:31:53;91047.72;;;31.12;17.90
11952;BME280;6036;41.840;23.486;2022-07-18T11:34:20;91047.03;;;30.68;20.90
11952;BME280;6036;41.840;23.486;2022-07-18T11:36:47;91038.44;;;30.60;18.83
11952;BME280;6036;41.840;23.486;2022-07-18T11:39:13;91045.63;;;30.85;19.75
11952;BME280;6036;41.840;23.486;2022-07-18T11:41:40;91039.03;;;30.64;20.66
11952;BME280;6036;41.840;23.486;2022-07-18T11:44:15;91035.97;;;29.88;22.30
11952;BME280;6036;41.840;23.486;2022-07-18T11:46:42;91032.75;;;29.81;20.31
11952;BME280;6036;41.840;23.486;2022-07-18T11:49:08;91041.34;;;30.44;20.58
11952;BME280;6036;41.840;23.486;2022-07-18T11:51:35;91033.47;;;30.59;20.78
11952;BME280;6036;41.840;23.486;2022-07-18T11:54:01;91024.84;;;30.08;22.31
11952;BME280;6036;41.840;23.486;2022-07-18T11:56:26;91033.97;;;30.23;21.39
11952;BME280;6036;41.840;23.486;2022-07-18T11:58:52;91035.13;;;29.79;22.42
11952;BME280;6036;41.840;23.486;2022-07-18T12:01:18;91027.81;;;30.01;19.75
11952;BME280;6036;41.840;23.486;2022-07-18T12:03:48;91029.38;;;30.11;21.74
11952;BME280;6036;41.840;23.486;2022-07-18T12:08:45;91024.25;;;29.70;21.36
11952;BME280;6036;41.840;23.486;2022-07-18T12:11:27;91016.13;;;30.04;19.82
11952;BME280;6036;41.840;23.486;2022-07-18T12:18:54;91016.56;;;29.81;22.98
11952;BME280;6036;41.840;23.486;2022-07-18T12:21:20;91014.06;;;30.08;19.12
11952;BME280;6036;41.840;23.486;2022-07-18T12:23:45;91014.25;;;29.92;20.58
11952;BME280;6036;41.840;23.486;2022-07-18T12:26:31;91011.50;;;29.70;22.81
11952;BME280;6036;41.840;23.486;2022-07-18T12:29:09;91015.03;;;29.45;23.02
11952;BME280;6036;41.840;23.486;2022-07-18T12:31:42;91012.16;;;29.27;23.96
11952;BME280;6036;41.840;23.486;2022-07-18T12:34:15;91011.06;;;29.12;24.18
11952;BME280;6036;41.840;23.486;2022-07-18T12:36:55;91010.75;;;28.97;24.07
11952;BME280;6036;41.840;23.486;2022-07-18T12:39:32;91007.75;;;28.95;23.20
11952;BME280;6036;41.840;23.486;2022-07-18T12:42:00;91015.16;;;28.79;25.20
11952;BME280;6036;41.840;23.486;2022-07-18T12:44:26;91010.66;;;28.88;24.54
11952;BME280;6036;41.840;23.486;2022-07-18T12:46:52;91013.22;;;28.92;24.85
11952;BME280;6036;41.840;23.486;2022-07-18T12:49:18;91017.34;;;28.71;25.70
11952;BME280;6036;41.840;23.486;2022-07-18T12:51:44;91020.03;;;28.71;25.65
11952;BME280;6036;41.840;23.486;2022-07-18T12:54:09;91013.56;;;28.81;25.56
11952;BME280;6036;41.840;23.486;2022-07-18T12:56:35;91009.59;;;28.86;25.64
11952;BME280;6036;41.840;23.486;2022-07-18T12:59:00;91000.19;;;29.03;23.07
11952;BME280;6036;41.840;23.486;2022-07-18T13:01:26;91010.00;;;28.97;25.60
11952;BME280;6036;41.840;23.486;2022-07-18T13:03:51;91005.44;;;28.44;26.81
11952;BME280;6036;41.840;23.486;2022-07-18T13:06:17;91001.00;;;28.24;26.60
11952;BME280;6036;41.840;23.486;2022-07-18T13:08:42;91002.81;;;28.27;26.33
11952;BME280;6036;41.840;23.486;2022-07-18T13:11:08;91003.47;;;28.31;26.58
11952;BME280;6036;41.840;23.486;2022-07-18T13:13:33;90999.56;;;28.61;24.37
11952;BME280;6036;41.840;23.486;2022-07-18T13:15:59;90995.25;;;28.64;24.00
11952;BME280;6036;41.840;23.486;2022-07-18T13:18:24;91002.00;;;28.56;26.02
11952;BME280;6036;41.840;23.486;2022-07-18T13:20:50;91004.19;;;28.61;25.75
11952;BME280;6036;41.840;23.486;2022-07-18T13:23:15;90998.13;;;28.44;26.16
11952;BME280;6036;41.840;23.486;2022-07-18T13:25:41;90996.91;;;28.45;25.82
11952;BME280;6036;41.840;23.486;2022-07-18T13:28:07;90991.69;;;28.67;25.52
11952;BME280;6036;41.840;23.486;2022-07-18T13:30:32;91000.19;;;28.65;25.50